Time;durP1;ratioP1;P1;durP2;ratioP2;P2;SDS_P1;SDS_P2;PMS_P1;PMS_P2;Temp;Humidity;BMP_temperature;BMP_pressure;BME280_temperature;BME280_humidity;BME280_pressure;Samples;Min_cycle;Max_cycle;Signal;HPM_P1;HPM_P2
2022/08/13 00:01:17;;;;;;;1.80;1.10;;;;;;;20.25;67.87;100160.72;5084139;28;20176;-76
2022/08/13 00:03:44;;;;;;;1.30;1.20;;;;;;;20.27;67.85;100170.28;5088363;28;20271;-78
2022/08/13 00:06:11;;;;;;;2.07;1.40;;;;;;;20.25;67.91;100165.09;5083385;28;20229;-75
2022/08/13 00:08:38;;;;;;;1.20;1.10;;;;;;;20.23;67.99;100169.56;5079971;28;20176;-76
2022/08/13 00:11:05;;;;;;;1.30;1.07;;;;;;;20.21;68.68;100176.69;5084951;28;20186;-77
2022/08/13 00:13:32;;;;;;;1.63;1.30;;;;;;;20.18;68.18;100174.25;5087176;28;20207;-77
2022/08/13 00:15:59;;;;;;;1.37;1.10;;;;;;;20.14;68.47;100180.56;5087428;28;20201;-76
2022/08/13 00:18:29;;;;;;;1.23;1.10;;;;;;;20.09;68.36;100176.38;5086184;28;20643;-77
2022/08/13 00:20:58;;;;;;;2.57;1.30;;;;;;;20.08;68.21;100182.56;5076950;28;20220;-77
2022/08/13 00:23:26;;;;;;;1.47;0.90;;;;;;;20.06;68.40;100175.69;5096476;28;20204;-78
2022/08/13 00:25:54;;;;;;;1.43;1.33;;;;;;;20.07;68.56;100174.78;5083094;28;20272;-76
2022/08/13 00:28:25;;;;;;;1.30;1.20;;;;;;;20.07;68.75;100177.41;5081253;28;20218;-77
2022/08/13 00:30:52;;;;;;;1.30;1.20;;;;;;;20.05;69.20;100174.00;5083391;28;20182;-76
2022/08/13 00:33:20;;;;;;;1.30;1.20;;;;;;;20.05;69.32;100172.22;5086205;28;20204;-77
2022/08/13 00:35:48;;;;;;;2.03;1.40;;;;;;;20.04;69.42;100177.56;5086464;28;20196;-77
2022/08/13 00:38:16;;;;;;;1.50;1.40;;;;;;;19.99;69.44;100172.53;5085492;28;20291;-76
2022/08/13 00:40:58;;;;;;;1.30;1.20;;;;;;;19.97;69.53;100163.00;5087139;28;20199;-76
2022/08/13 00:43:25;;;;;;;3.17;1.17;;;;;;;19.92;68.90;100166.75;5078607;28;20206;-77
2022/08/13 00:45:51;;;;;;;2.00;1.30;;;;;;;19.87;68.42;100163.50;5082522;28;20830;-77
2022/08/13 00:51:03;;;;;;;1.43;1.10;;;;;;;19.79;68.45;100161.22;5085437;28;20193;-77
2022/08/13 00:53:30;;;;;;;1.60;1.50;;;;;;;19.74;69.07;100160.56;5082330;28;20305;-77
2022/08/13 00:55:58;;;;;;;1.27;1.10;;;;;;;19.67;69.67;100161.81;5086148;28;20233;-79
2022/08/13 00:58:26;;;;;;;2.23;1.50;;;;;;;19.64;70.70;100156.72;5080512;28;20671;-75
2022/08/13 01:00:56;;;;;;;2.77;1.30;;;;;;;19.61;71.71;100157.72;5086775;28;20192;-76
2022/08/13 01:03:22;;;;;;;2.00;1.50;;;;;;;19.59;71.62;100153.44;5084024;28;20201;-75
2022/08/13 01:05:49;;;;;;;1.87;1.30;;;;;;;19.50;71.46;100153.00;5084513;28;20268;-75
2022/08/13 01:08:17;;;;;;;3.57;1.50;;;;;;;19.49;70.62;100158.31;5081138;28;20186;-75
2022/08/13 01:10:44;;;;;;;1.50;1.40;;;;;;;19.38;70.52;100150.09;5081318;28;20192;-75
2022/08/13 01:13:11;;;;;;;2.63;1.50;;;;;;;19.31;70.52;100160.91;5083143;28;20208;-77
2022/08/13 01:15:41;;;;;;;1.57;1.37;;;;;;;19.26;70.85;100152.38;5080051;28;20205;-74
2022/08/13 01:18:12;;;;;;;1.90;1.20;;;;;;;19.23;71.14;100157.78;5084266;28;20182;-75
2022/08/13 01:20:44;;;;;;;2.67;1.60;;;;;;;19.17;71.66;100153.66;5087419;28;20174;-76
2022/08/13 01:23:10;;;;;;;1.10;1.00;;;;;;;19.13;71.66;100140.78;5082673;28;20194;-75
2022/08/13 01:25:36;;;;;;;1.60;1.30;;;;;;;19.08;71.38;100150.63;5082239;28;20205;-77
2022/08/13 01:28:02;;;;;;;1.50;1.40;;;;;;;19.01;71.51;100142.19;5087242;28;20268;-76
2022/08/13 01:30:29;;;;;;;1.40;1.27;;;;;;;18.95;71.15;100147.75;5085135;28;20278;-75
2022/08/13 01:32:54;;;;;;;2.33;1.60;;;;;;;18.92;70.12;100147.84;5087626;28;20214;-75
2022/08/13 01:35:21;;;;;;;1.73;1.27;;;;;;;18.88;69.58;100141.91;5087294;28;20182;-77
2022/08/13 01:37:53;;;;;;;3.23;1.60;;;;;;;18.82;69.45;100142.16;5081376;28;20207;-77
2022/08/13 01:40:19;;;;;;;1.47;1.20;;;;;;;18.78;69.68;100143.22;5084912;28;20652;-76
2022/08/13 01:42:48;;;;;;;2.10;1.33;;;;;;;18.69;70.01;100141.88;5084267;28;20236;-77
2022/08/13 01:45:14;;;;;;;1.20;1.10;;;;;;;18.65;70.45;100149.03;5085253;28;20183;-77
2022/08/13 01:50:29;;;;;;;1.63;1.53;;;;;;;18.71;74.10;100161.88;5081645;28;20251;-77
2022/08/13 01:53:09;;;;;;;1.60;1.50;;;;;;;18.69;74.98;100162.84;5077025;28;20673;-76
2022/08/13 01:55:40;;;;;;;1.90;1.50;;;;;;;18.63;74.91;100171.81;5075872;28;20709;-77
2022/08/13 01:58:11;;;;;;;2.60;1.63;;;;;;;18.58;74.87;100166.78;5086356;28;20186;-78
2022/08/13 02:00:39;;;;;;;1.50;1.37;;;;;;;18.57;75.04;100182.59;5084036;28;20566;-78
2022/08/13 02:03:11;;;;;;;1.70;1.60;;;;;;;18.53;74.91;100174.00;5087412;28;20198;-77
2022/08/13 02:05:38;;;;;;;1.97;1.40;;;;;;;18.47;75.11;100176.91;5088518;28;20615;-75
2022/08/13 02:08:08;;;;;;;2.70;1.50;;;;;;;18.40;75.58;100180.69;5074695;28;20278;-76
2022/08/13 02:10:42;;;;;;;3.23;1.53;;;;;;;18.35;75.48;100182.69;5083869;28;20193;-75
2022/08/13 02:13:14;;;;;;;1.50;1.10;;;;;;;18.29;75.96;100178.56;5083880;28;20247;-76
2022/08/13 02:15:41;;;;;;;3.37;1.60;;;;;;;18.26;75.66;100184.75;5081452;28;20233;-74
2022/08/13 02:18:14;;;;;;;5.60;1.80;;;;;;;18.24;75.69;100186.59;5084156;28;20192;-75
2022/08/13 02:20:41;;;;;;;2.00;1.67;;;;;;;18.22;76.03;100180.59;5083846;28;20188;-75
2022/08/13 02:23:07;;;;;;;1.60;1.50;;;;;;;18.22;76.10;100179.72;5082807;28;20202;-77
2022/08/13 02:25:33;;;;;;;1.87;1.67;;;;;;;18.20;76.07;100178.94;5083923;28;20561;-76
2022/08/13 02:27:59;;;;;;;3.90;1.80;;;;;;;18.21;76.06;100180.63;5082795;28;20198;-76
2022/08/13 02:30:27;;;;;;;7.00;2.43;;;;;;;18.22;76.01;100183.22;5080115;28;20187;-76
2022/08/13 02:32:53;;;;;;;5.20;1.87;;;;;;;18.21;75.90;100178.88;5082260;28;20197;-78
2022/08/13 02:35:20;;;;;;;2.53;1.50;;;;;;;18.21;76.03;100178.03;5078045;28;20190;-76
2022/08/13 02:37:47;;;;;;;2.40;1.70;;;;;;;18.18;76.46;100179.00;5077642;28;20311;-77
2022/08/13 02:42:59;;;;;;;4.03;1.83;;;;;;;18.19;76.40;100183.34;5077449;28;20350;-77
2022/08/13 02:45:26;;;;;;;5.17;1.80;;;;;;;18.16;76.59;100178.22;5088457;28;20628;-77
2022/08/13 02:47:56;;;;;;;2.97;1.90;;;;;;;18.13;76.64;100173.97;5089603;28;20200;-75
2022/08/13 02:50:22;;;;;;;3.73;1.67;;;;;;;18.13;76.71;100179.22;5082401;28;20189;-75
2022/08/13 02:52:51;;;;;;;4.50;1.80;;;;;;;18.11;77.08;100177.56;5089921;28;20738;-77
2022/08/13 02:55:22;;;;;;;3.83;1.83;;;;;;;18.09;77.20;100174.16;5087892;28;20205;-76
2022/08/13 02:57:48;;;;;;;4.13;1.50;;;;;;;18.06;77.35;100179.53;5077412;28;20272;-74
2022/08/13 03:00:17;;;;;;;2.80;1.83;;;;;;;18.03;77.59;100179.66;5092606;28;20182;-76
2022/08/13 03:02:44;;;;;;;1.67;1.57;;;;;;;17.99;77.47;100178.94;5088967;28;20269;-78
2022/08/13 03:05:13;;;;;;;1.70;1.60;;;;;;;17.98;77.22;100190.34;5089243;28;20188;-76
2022/08/13 03:07:41;;;;;;;2.57;1.70;;;;;;;17.94;77.27;100189.56;5090483;28;20201;-76
2022/08/13 03:10:11;;;;;;;2.07;1.67;;;;;;;17.91;77.14;100183.59;5090551;28;20192;-77
2022/08/13 03:12:39;;;;;;;1.73;1.40;;;;;;;17.89;77.00;100185.41;5088238;28;20207;-77
2022/08/13 03:15:08;;;;;;;1.77;1.50;;;;;;;17.89;76.84;100190.66;5091354;28;20189;-78
2022/08/13 03:17:33;;;;;;;2.83;1.87;;;;;;;17.86;76.44;100186.41;5092521;28;20218;-77
2022/08/13 03:19:59;;;;;;;1.90;1.47;;;;;;;17.81;76.63;100184.00;5092474;28;20291;-77
2022/08/13 03:22:25;;;;;;;2.87;1.70;;;;;;;17.80;77.15;100190.13;5079488;28;20671;-77
2022/08/13 03:24:50;;;;;;;3.73;2.17;;;;;;;17.78;76.90;100183.25;5088267;28;20272;-77
2022/08/13 03:27:16;;;;;;;3.07;1.80;;;;;;;17.79;77.36;100190.19;5094962;28;20604;-77
2022/08/13 03:29:41;;;;;;;2.23;1.50;;;;;;;17.78;77.25;100191.09;5083044;28;20182;-77
2022/08/13 03:32:06;;;;;;;4.07;1.70;;;;;;;17.76;77.77;100199.00;5087970;28;20216;-79
2022/08/13 03:34:32;;;;;;;1.90;1.70;;;;;;;17.74;78.27;100198.22;5091050;28;20276;-78
2022/08/13 03:36:57;;;;;;;3.27;2.00;;;;;;;17.73;78.63;100191.28;5082004;28;20225;-77
2022/08/13 03:39:22;;;;;;;3.27;1.90;;;;;;;17.71;79.13;100187.88;5086444;28;20197;-78
2022/08/13 03:41:48;;;;;;;4.40;1.90;;;;;;;17.66;79.37;100189.84;5082680;28;20764;-75
2022/08/13 03:44:13;;;;;;;3.63;1.70;;;;;;;17.64;79.49;100191.66;5083994;28;20185;-75
2022/08/13 03:46:38;;;;;;;3.57;1.93;;;;;;;17.59;79.34;100194.47;5088917;28;20626;-77
2022/08/13 03:49:04;;;;;;;3.83;1.97;;;;;;;17.57;79.75;100190.19;5084880;28;20609;-76
2022/08/13 03:51:30;;;;;;;6.40;1.93;;;;;;;17.50;80.23;100189.59;5084518;28;20192;-75
2022/08/13 03:53:56;;;;;;;4.93;1.80;;;;;;;17.46;80.06;100183.63;5088011;28;20200;-78
2022/08/13 03:56:23;;;;;;;2.37;1.63;;;;;;;17.42;80.02;100187.25;5089797;28;20208;-78
2022/08/13 03:58:50;;;;;;;3.57;1.73;;;;;;;17.39;79.96;100190.03;5089428;28;20195;-78
2022/08/13 04:01:17;;;;;;;4.87;1.87;;;;;;;17.39;80.01;100187.41;5086834;28;20184;-77
2022/08/13 04:03:43;;;;;;;3.17;1.67;;;;;;;17.34;80.02;100187.56;5078584;28;20206;-78
2022/08/13 04:06:16;;;;;;;4.30;1.90;;;;;;;17.31;80.45;100186.84;5085521;28;20254;-78
2022/08/13 04:08:44;;;;;;;2.97;1.93;;;;;;;17.27;80.26;100191.34;5088681;28;20278;-76
2022/08/13 04:11:13;;;;;;;2.10;1.60;;;;;;;17.26;80.26;100191.38;5087298;28;20572;-76
2022/08/13 04:13:40;;;;;;;2.03;1.87;;;;;;;17.26;80.41;100194.88;5079649;28;20211;-77
2022/08/13 04:16:07;;;;;;;2.23;1.70;;;;;;;17.25;79.71;100193.16;5088617;28;20222;-76
2022/08/13 04:18:35;;;;;;;4.03;1.83;;;;;;;17.24;79.71;100195.84;5085780;28;20178;-75
2022/08/13 04:21:02;;;;;;;2.67;1.70;;;;;;;17.25;79.58;100198.38;5084755;28;20679;-76
2022/08/13 04:23:28;;;;;;;1.57;1.47;;;;;;;17.27;79.45;100198.31;5074888;28;20222;-75
2022/08/13 04:25:54;;;;;;;2.10;1.80;;;;;;;17.24;79.50;100201.91;5079307;28;20214;-76
2022/08/13 04:28:21;;;;;;;1.93;1.60;;;;;;;17.25;79.68;100197.53;5085174;28;20885;-76
2022/08/13 04:30:46;;;;;;;2.47;2.00;;;;;;;17.27;79.56;100196.56;5086964;28;20189;-75
2022/08/13 04:33:14;;;;;;;2.40;1.53;;;;;;;17.27;79.66;100198.31;5086132;28;20210;-75
2022/08/13 04:35:40;;;;;;;2.17;1.40;;;;;;;17.29;79.56;100199.13;5088613;28;20205;-76
2022/08/13 04:38:06;;;;;;;1.60;1.40;;;;;;;17.30;79.46;100195.59;5083755;28;20180;-76
2022/08/13 04:40:36;;;;;;;1.47;1.37;;;;;;;17.33;79.62;100203.34;5087900;28;20238;-75
2022/08/13 04:43:03;;;;;;;1.80;1.70;;;;;;;17.35;79.52;100191.88;5089071;28;20207;-75
2022/08/13 04:45:30;;;;;;;2.30;1.50;;;;;;;17.42;79.62;100189.88;5089179;28;20185;-77
2022/08/13 04:47:58;;;;;;;1.60;1.40;;;;;;;17.51;79.62;100199.13;5090466;28;20188;-77
2022/08/13 04:50:24;;;;;;;2.00;1.53;;;;;;;17.59;79.67;100193.59;5087777;28;20189;-78
2022/08/13 04:52:50;;;;;;;1.40;1.30;;;;;;;17.63;79.46;100193.41;5086207;28;20212;-76
2022/08/13 04:55:16;;;;;;;1.63;1.53;;;;;;;17.66;80.02;100203.75;5080473;28;20261;-75
2022/08/13 04:57:41;;;;;;;1.60;1.50;;;;;;;17.71;80.18;100200.97;5075993;28;20247;-77
2022/08/13 05:00:08;;;;;;;2.50;1.73;;;;;;;17.73;80.37;100203.53;5086576;28;20201;-78
2022/08/13 05:02:41;;;;;;;1.43;1.33;;;;;;;17.74;79.77;100203.47;5084279;28;20213;-79
2022/08/13 05:05:10;;;;;;;2.73;2.00;;;;;;;17.79;79.54;100205.88;5081804;28;20188;-77
2022/08/13 05:07:35;;;;;;;2.13;1.93;;;;;;;17.80;79.90;100213.69;5081651;28;20177;-75
2022/08/13 05:10:01;;;;;;;2.30;1.90;;;;;;;17.83;79.88;100204.84;5086672;28;20189;-75
2022/08/13 05:12:27;;;;;;;1.70;1.60;;;;;;;17.84;80.07;100209.19;5089882;28;20424;-76
2022/08/13 05:14:52;;;;;;;3.37;1.80;;;;;;;17.88;79.39;100202.03;5083311;28;20686;-75
2022/08/13 05:17:17;;;;;;;1.70;1.60;;;;;;;17.89;79.43;100206.38;5085070;28;20985;-77
2022/08/13 05:19:45;;;;;;;1.83;1.67;;;;;;;17.89;79.75;100207.25;5084343;28;20315;-77
2022/08/13 05:22:11;;;;;;;2.20;1.80;;;;;;;17.90;79.94;100206.31;5086442;28;20232;-77
2022/08/13 05:24:37;;;;;;;1.97;1.80;;;;;;;17.95;79.72;100206.13;5086301;28;20266;-75
2022/08/13 05:27:03;;;;;;;1.70;1.60;;;;;;;18.04;80.15;100215.41;5085588;28;20185;-75
2022/08/13 05:29:29;;;;;;;3.17;1.70;;;;;;;18.32;78.53;100207.22;5086989;28;20192;-76
2022/08/13 05:31:54;;;;;;;1.83;1.50;;;;;;;18.87;77.06;100213.59;5085943;28;20209;-77
2022/08/13 05:34:19;;;;;;;2.33;2.07;;;;;;;19.46;75.29;100211.78;5085443;28;20217;-79
2022/08/13 05:36:46;;;;;;;2.23;1.70;;;;;;;20.18;72.92;100211.03;5087307;28;20573;-80
2022/08/13 05:39:13;;;;;;;1.80;1.70;;;;;;;21.32;70.16;100217.38;5077842;28;20570;-80
2022/08/13 05:41:39;;;;;;;2.83;2.00;;;;;;;22.24;66.50;100218.31;5084078;28;20923;-81
2022/08/13 05:44:04;;;;;;;3.03;1.70;;;;;;;23.11;64.10;100218.41;5080445;28;20243;-80
2022/08/13 05:46:30;;;;;;;3.50;1.60;;;;;;;23.44;63.30;100223.38;5087338;28;20188;-79
2022/08/13 05:48:56;;;;;;;3.97;1.97;;;;;;;24.20;61.53;100221.09;5091799;28;20227;-80
2022/08/13 05:51:25;;;;;;;4.13;1.83;;;;;;;24.70;60.73;100214.28;5085377;28;20191;-80
2022/08/13 05:53:54;;;;;;;2.23;1.67;;;;;;;25.43;59.86;100202.06;5083688;28;20189;-80
2022/08/13 05:56:21;;;;;;;2.13;1.87;;;;;;;26.05;58.33;100209.91;5086714;28;20304;-79
2022/08/13 05:58:48;;;;;;;3.27;1.90;;;;;;;26.19;57.31;100209.72;5087583;28;20272;-80
2022/08/13 06:04:00;;;;;;;2.27;1.90;;;;;;;26.50;56.88;100214.50;5085481;28;20507;-79
2022/08/13 06:06:26;;;;;;;2.00;1.80;;;;;;;26.57;56.88;100213.91;5080783;28;20185;-80
2022/08/13 06:08:56;;;;;;;2.57;1.63;;;;;;;26.98;56.24;100206.34;5084467;28;20196;-78
2022/08/13 06:11:21;;;;;;;3.77;1.60;;;;;;;27.00;56.04;100207.03;5079418;28;20602;-78
2022/08/13 06:13:48;;;;;;;2.67;1.50;;;;;;;27.63;55.55;100206.44;5083696;28;20177;-77
2022/08/13 06:16:17;;;;;;;1.90;1.70;;;;;;;27.81;55.13;100206.75;5086437;28;20292;-78
2022/08/13 06:18:44;;;;;;;1.60;1.50;;;;;;;28.36;54.16;100202.25;5084094;28;20208;-77
2022/08/13 06:21:11;;;;;;;1.40;1.30;;;;;;;28.70;53.97;100200.19;5083274;28;20200;-78
2022/08/13 06:23:38;;;;;;;1.63;1.53;;;;;;;28.82;53.57;100200.94;5079115;28;20684;-78
2022/08/13 06:26:07;;;;;;;2.50;1.70;;;;;;;29.11;53.26;100200.19;5085289;28;20568;-78
2022/08/13 06:28:34;;;;;;;3.47;2.00;;;;;;;29.14;53.50;100207.06;5085160;28;20189;-78
2022/08/13 06:31:03;;;;;;;2.47;1.90;;;;;;;29.10;53.14;100209.16;5087850;28;20185;-79
2022/08/13 06:33:30;;;;;;;4.30;1.87;;;;;;;28.59;53.63;100214.41;5087351;28;20205;-78
2022/08/13 06:35:58;;;;;;;1.93;1.73;;;;;;;28.94;53.82;100216.84;5086199;28;20926;-79
2022/08/13 06:38:30;;;;;;;2.20;2.00;;;;;;;28.63;53.79;100211.50;5086555;28;20199;-78
2022/08/13 06:40:59;;;;;;;1.73;1.63;;;;;;;28.65;53.55;100210.38;5086629;28;20640;-78
2022/08/13 06:43:47;;;;;;;2.53;1.50;;;;;;;28.66;53.79;100213.91;5085521;28;20205;-78
2022/08/13 06:46:15;;;;;;;1.50;1.40;;;;;;;28.77;53.50;100211.16;5086343;28;20196;-78
2022/08/13 06:48:40;;;;;;;3.10;1.50;;;;;;;28.90;52.94;100214.44;5081393;28;20182;-78
2022/08/13 06:51:08;;;;;;;3.87;2.00;;;;;;;28.88;53.02;100213.72;5088453;28;20199;-78
2022/08/13 06:53:35;;;;;;;5.03;2.27;;;;;;;29.07;53.23;100221.91;5086270;28;20216;-78
2022/08/13 06:56:03;;;;;;;2.70;1.60;;;;;;;28.75;53.38;100221.09;5084814;28;20856;-78
2022/08/13 06:58:30;;;;;;;3.97;2.00;;;;;;;28.53;53.50;100216.75;5086635;28;20185;-78
2022/08/13 07:00:56;;;;;;;3.47;1.97;;;;;;;28.51;53.86;100224.88;5085792;28;20181;-79
2022/08/13 07:03:33;;;;;;;3.30;1.90;;;;;;;28.66;53.84;100228.03;5086705;28;20201;-78
2022/08/13 07:06:00;;;;;;;1.53;1.43;;;;;;;28.14;54.66;100218.19;5085637;28;20725;-78
2022/08/13 07:08:28;;;;;;;2.40;1.60;;;;;;;28.04;54.92;100222.59;5085566;28;20667;-78
2022/08/13 07:13:41;;;;;;;1.97;1.60;;;;;;;28.80;53.56;100218.88;5086176;28;20817;-78
2022/08/13 07:16:08;;;;;;;4.10;2.20;;;;;;;28.75;53.82;100221.09;5084406;28;20208;-78
2022/08/13 07:18:35;;;;;;;3.33;1.60;;;;;;;28.60;53.92;100217.91;5077574;28;20190;-79
2022/08/13 07:21:04;;;;;;;2.70;1.80;;;;;;;28.65;53.85;100220.19;5083068;28;20324;-78
2022/08/13 07:23:29;;;;;;;3.17;1.90;;;;;;;28.54;54.09;100227.25;5085151;28;20200;-78
2022/08/13 07:25:57;;;;;;;3.27;1.53;;;;;;;28.21;54.42;100231.00;5084797;28;20695;-78
2022/08/13 07:28:25;;;;;;;3.40;1.40;;;;;;;27.94;54.83;100225.16;5081780;28;20282;-78
2022/08/13 07:30:52;;;;;;;2.40;1.77;;;;;;;27.40;55.68;100226.91;5086342;28;20189;-78
2022/08/13 07:33:19;;;;;;;1.87;1.60;;;;;;;27.28;55.69;100225.25;5082717;28;20385;-77
2022/08/13 07:35:44;;;;;;;2.23;1.70;;;;;;;27.21;56.17;100223.09;5091006;28;20201;-78
2022/08/13 07:38:10;;;;;;;3.53;2.20;;;;;;;27.27;56.51;100231.53;5090133;28;20189;-78
2022/08/13 07:40:36;;;;;;;2.87;1.90;;;;;;;27.01;57.13;100229.16;5083271;28;20220;-77
2022/08/13 07:43:04;;;;;;;2.17;1.60;;;;;;;27.11;56.74;100229.25;5087303;28;20258;-78
2022/08/13 07:45:30;;;;;;;1.90;1.57;;;;;;;27.28;56.66;100230.56;5085086;28;20181;-77
2022/08/13 07:47:57;;;;;;;2.30;1.60;;;;;;;27.36;56.69;100223.66;5083152;28;20534;-77
2022/08/13 07:50:23;;;;;;;1.67;1.50;;;;;;;27.28;56.65;100218.13;5091966;28;20560;-78
2022/08/13 07:52:57;;;;;;;3.40;1.63;;;;;;;27.11;56.87;100229.25;5089286;28;20254;-78
2022/08/13 07:55:25;;;;;;;1.80;1.70;;;;;;;26.56;57.74;100229.94;5073526;28;20200;-77
2022/08/13 07:57:51;;;;;;;1.70;1.60;;;;;;;26.45;58.00;100228.13;5074732;28;20182;-77
2022/08/13 08:00:29;;;;;;;2.50;1.80;;;;;;;26.17;58.91;100216.97;5082348;28;20185;-78
2022/08/13 08:03:01;;;;;;;1.77;1.67;;;;;;;26.15;59.79;100221.56;5090351;28;20213;-79
2022/08/13 08:05:31;;;;;;;1.50;1.40;;;;;;;26.12;59.38;100217.31;5084837;28;20262;-78
2022/08/13 08:07:58;;;;;;;1.50;1.37;;;;;;;25.77;59.54;100207.53;5089800;28;20177;-78
2022/08/13 08:10:24;;;;;;;2.00;1.60;;;;;;;25.95;59.79;100213.25;5084480;28;20186;-78
2022/08/13 08:12:50;;;;;;;2.47;1.80;;;;;;;25.92;59.89;100215.31;5089316;28;20205;-78
2022/08/13 08:15:16;;;;;;;4.30;1.70;;;;;;;25.70;59.60;100223.06;5086049;28;20192;-77
2022/08/13 08:17:42;;;;;;;2.13;1.80;;;;;;;25.49;60.21;100220.16;5088034;28;20266;-78
2022/08/13 08:20:09;;;;;;;3.17;1.77;;;;;;;25.60;60.41;100215.88;5074528;28;20645;-77
2022/08/13 08:22:35;;;;;;;3.40;1.60;;;;;;;25.68;60.20;100218.81;5069671;28;20283;-78
2022/08/13 08:25:02;;;;;;;2.30;1.97;;;;;;;25.55;60.30;100221.53;5085685;28;20222;-75
2022/08/13 08:27:27;;;;;;;3.83;1.80;;;;;;;25.27;60.93;100211.09;5087377;28;20722;-79
2022/08/13 08:29:53;;;;;;;2.27;1.70;;;;;;;25.37;61.04;100210.41;5086169;28;20311;-80
2022/08/13 08:32:19;;;;;;;4.47;2.00;;;;;;;25.40;60.90;100212.84;5081326;28;20250;-78
2022/08/13 08:34:47;;;;;;;2.07;1.80;;;;;;;25.19;61.22;100218.72;5084186;28;20243;-79
2022/08/13 08:42:52;;;;;;;2.30;2.10;;;;;;;25.14;61.57;100215.59;5078769;28;20300;-78
2022/08/13 08:45:20;;;;;;;2.20;2.00;;;;;;;25.13;61.68;100208.59;5080888;28;20232;-78
2022/08/13 08:47:48;;;;;;;2.07;1.83;;;;;;;25.11;61.95;100205.22;5086624;28;20189;-79
2022/08/13 08:50:17;;;;;;;2.57;2.00;;;;;;;25.11;61.84;100202.56;5082376;28;20196;-77
2022/08/13 08:55:35;;;;;;;3.57;1.60;;;;;;;25.13;61.58;100203.31;5077066;28;20232;-77
2022/08/13 08:58:03;;;;;;;2.90;1.77;;;;;;;25.24;60.41;100210.47;5081513;28;20288;-78
2022/08/13 09:00:28;;;;;;;2.00;1.80;;;;;;;25.32;60.19;100194.88;5077876;28;20369;-78
2022/08/13 09:02:56;;;;;;;2.30;1.70;;;;;;;25.40;59.68;100191.66;5087743;28;20649;-76
2022/08/13 09:05:25;;;;;;;1.63;1.53;;;;;;;25.55;59.80;100189.75;5088431;28;20637;-75
2022/08/13 09:07:52;;;;;;;1.70;1.60;;;;;;;25.60;59.35;100189.38;5094029;28;20177;-76
2022/08/13 09:10:20;;;;;;;2.43;1.73;;;;;;;25.70;59.16;100182.44;5086133;28;20195;-76
2022/08/13 09:12:48;;;;;;;4.37;2.03;;;;;;;25.79;58.80;100184.38;5078955;28;20248;-75
2022/08/13 09:15:17;;;;;;;2.43;1.60;;;;;;;25.79;59.52;100188.88;5085990;28;20189;-78
2022/08/13 09:17:45;;;;;;;2.57;1.80;;;;;;;25.74;60.59;100177.75;5079800;28;20206;-79
2022/08/13 09:20:16;;;;;;;2.10;1.70;;;;;;;25.86;60.22;100176.84;5084967;28;20325;-76
2022/08/13 09:22:44;;;;;;;1.80;1.70;;;;;;;25.95;59.85;100180.59;5084900;28;20747;-79
2022/08/13 09:25:13;;;;;;;2.93;1.73;;;;;;;25.99;59.61;100180.25;5077998;28;20193;-78
2022/08/13 09:27:43;;;;;;;2.10;1.70;;;;;;;26.08;58.67;100183.16;5085165;28;20280;-77
2022/08/13 09:30:10;;;;;;;2.60;1.73;;;;;;;26.10;58.43;100181.25;5084484;28;20188;-78
2022/08/13 09:32:36;;;;;;;4.37;1.97;;;;;;;26.08;58.86;100168.13;5078164;28;20209;-77
2022/08/13 09:35:05;;;;;;;1.87;1.67;;;;;;;26.26;58.57;100179.13;5080831;28;21400;-76
2022/08/13 09:37:32;;;;;;;1.97;1.87;;;;;;;26.43;58.67;100169.03;5080737;28;20201;-78
2022/08/13 09:40:04;;;;;;;1.70;1.60;;;;;;;26.40;57.76;100161.31;5082749;28;20665;-75
2022/08/13 09:42:37;;;;;;;3.20;1.70;;;;;;;26.40;57.33;100166.63;5084401;28;20204;-75
2022/08/13 09:45:04;;;;;;;3.27;2.00;;;;;;;26.26;57.51;100167.66;5075633;28;20535;-76
2022/08/13 09:47:30;;;;;;;2.93;1.83;;;;;;;26.38;56.98;100157.91;5077935;28;20181;-77
2022/08/13 09:49:56;;;;;;;2.03;1.63;;;;;;;26.50;56.35;100178.19;5076904;28;20212;-78
2022/08/13 09:52:22;;;;;;;4.13;1.73;;;;;;;26.55;55.82;100170.72;5084697;28;20216;-79
2022/08/13 09:54:48;;;;;;;3.63;1.80;;;;;;;26.82;55.96;100158.91;5075068;28;20201;-77
2022/08/13 09:57:14;;;;;;;2.80;1.83;;;;;;;26.94;56.03;100165.06;5076488;28;20209;-76
2022/08/13 09:59:39;;;;;;;2.40;1.67;;;;;;;27.00;55.38;100169.03;5079534;28;20220;-78
2022/08/13 10:02:12;;;;;;;2.03;1.70;;;;;;;26.91;55.10;100168.81;5081554;28;20205;-76
2022/08/13 10:04:38;;;;;;;3.10;1.70;;;;;;;26.93;54.89;100161.53;5082034;28;20624;-78
2022/08/13 10:07:06;;;;;;;1.80;1.70;;;;;;;27.07;54.80;100149.00;5084810;28;20640;-76
2022/08/13 10:09:33;;;;;;;2.27;1.80;;;;;;;27.03;54.05;100148.38;5079018;28;20209;-74
2022/08/13 10:12:04;;;;;;;1.80;1.70;;;;;;;27.14;53.76;100159.97;5087293;28;20218;-76
2022/08/13 10:14:30;;;;;;;2.70;1.87;;;;;;;27.18;53.58;100150.75;5079959;28;21912;-77
2022/08/13 10:16:56;;;;;;;1.90;1.70;;;;;;;27.34;53.47;100148.53;5078253;28;20224;-76
2022/08/13 10:19:21;;;;;;;4.90;1.80;;;;;;;27.25;54.10;100146.66;5082652;28;20272;-74
2022/08/13 10:21:46;;;;;;;2.10;1.60;;;;;;;27.22;53.57;100128.28;5081000;28;20228;-77
2022/08/13 10:24:12;;;;;;;4.70;1.90;;;;;;;27.19;53.51;100147.13;5087971;28;20305;-77
2022/08/13 10:26:40;;;;;;;3.73;1.73;;;;;;;27.36;52.90;100137.81;5081846;28;20981;-77
2022/08/13 10:29:09;;;;;;;2.70;1.73;;;;;;;27.44;52.89;100145.13;5076018;28;20720;-76
2022/08/13 10:31:35;;;;;;;1.97;1.67;;;;;;;27.50;52.97;100123.38;5081150;28;20185;-76
2022/08/13 10:34:03;;;;;;;3.33;1.77;;;;;;;27.60;52.54;100132.31;5083742;28;20645;-77
2022/08/13 10:36:30;;;;;;;4.83;2.00;;;;;;;27.52;52.28;100137.38;5081723;28;20695;-76
2022/08/13 10:38:56;;;;;;;4.37;1.70;;;;;;;27.53;52.11;100125.78;5082719;28;20193;-77
2022/08/13 10:41:22;;;;;;;4.50;1.50;;;;;;;27.57;52.76;100132.53;5082532;28;20182;-78
2022/08/13 10:43:53;;;;;;;1.80;1.60;;;;;;;27.62;51.59;100121.53;5082601;28;20189;-77
2022/08/13 10:46:20;;;;;;;1.93;1.70;;;;;;;27.75;50.87;100132.81;5081968;28;20196;-76
2022/08/13 10:48:51;;;;;;;1.80;1.70;;;;;;;27.81;50.86;100127.00;5080418;28;20193;-75
2022/08/13 10:51:17;;;;;;;5.50;1.93;;;;;;;27.90;50.42;100117.38;5082456;28;20217;-78
2022/08/13 10:54:01;;;;;;;1.97;1.37;;;;;;;28.12;50.23;100113.75;5080744;28;20712;-76
2022/08/13 10:56:28;;;;;;;1.43;1.33;;;;;;;28.28;49.17;100123.09;5082866;28;20209;-75
2022/08/13 10:58:56;;;;;;;1.70;1.60;;;;;;;28.21;48.94;100120.09;5080927;28;20323;-75
2022/08/13 11:01:23;;;;;;;1.73;1.60;;;;;;;28.28;49.25;100118.59;5085647;28;20181;-78
2022/08/13 11:03:51;;;;;;;2.10;1.67;;;;;;;28.26;49.15;100115.22;5085831;28;20193;-76
2022/08/13 11:06:16;;;;;;;3.73;1.70;;;;;;;28.28;49.31;100113.28;5086901;28;20200;-76
2022/08/13 11:08:42;;;;;;;1.77;1.57;;;;;;;28.31;49.98;100117.47;5084915;28;20181;-77
2022/08/13 11:11:09;;;;;;;2.50;1.80;;;;;;;28.26;49.84;100117.06;5089284;28;20905;-77
2022/08/13 11:13:39;;;;;;;2.10;1.67;;;;;;;28.45;49.72;100103.81;5087292;28;20211;-77
2022/08/13 11:16:27;;;;;;;3.33;1.77;;;;;;;28.41;50.06;100099.75;5086720;28;20209;-76
2022/08/13 11:18:53;;;;;;;1.70;1.13;;;;;;;28.23;48.79;100120.78;5086979;28;20231;-77
2022/08/13 11:21:25;;;;;;;1.70;1.60;;;;;;;28.21;48.94;100101.47;5087064;28;20181;-77
2022/08/13 11:23:52;;;;;;;1.80;1.67;;;;;;;28.27;49.10;100108.91;5086623;28;20181;-77
2022/08/13 11:26:18;;;;;;;6.23;2.10;;;;;;;28.27;48.75;100100.09;5088138;28;20233;-75
2022/08/13 11:28:43;;;;;;;1.53;1.43;;;;;;;28.48;48.06;100100.06;5087172;28;20192;-77
2022/08/13 11:31:09;;;;;;;2.40;1.47;;;;;;;28.62;47.77;100096.16;5088626;28;20193;-76
2022/08/13 11:33:34;;;;;;;2.07;1.60;;;;;;;28.53;48.50;100110.28;5091195;28;20801;-74
2022/08/13 11:36:00;;;;;;;2.70;1.63;;;;;;;28.59;48.49;100099.94;5085109;28;20260;-77
2022/08/13 11:38:25;;;;;;;2.27;1.50;;;;;;;28.52;49.12;100090.78;5088631;28;20189;-76
2022/08/13 11:40:56;;;;;;;1.97;1.70;;;;;;;28.60;49.18;100098.09;5088958;28;20185;-77
2022/08/13 11:43:26;;;;;;;1.67;1.57;;;;;;;28.58;49.72;100095.59;5087974;28;20205;-77
2022/08/13 11:45:51;;;;;;;1.97;1.77;;;;;;;28.62;49.02;100082.00;5085242;28;20190;-77
2022/08/13 11:48:19;;;;;;;3.97;1.70;;;;;;;28.66;49.10;100084.25;5088564;28;20188;-76